sensor_id;sensor_type;location;lat;lon;timestamp;P1;durP1;ratioP1;P2;durP2;ratioP2
2111;SDS011;1062;52.538;13.400;2023-03-05T00:02:10;4.30;;;2.80;;
2111;SDS011;1062;52.538;13.400;2023-03-05T00:04:37;10.63;;;3.00;;
2111;SDS011;1062;52.538;13.400;2023-03-05T00:07:03;9.93;;;3.33;;
2111;SDS011;1062;52.538;13.400;2023-03-05T00:09:29;3.00;;;2.53;;
2111;SDS011;1062;52.538;13.400;2023-03-05T00:11:55;8.67;;;2.50;;
2111;SDS011;1062;52.538;13.400;2023-03-05T00:14:21;8.00;;;2.63;;
2111;SDS011;1062;52.538;13.400;2023-03-05T00:16:47;9.97;;;3.20;;
2111;SDS011;1062;52.538;13.400;2023-03-05T00:19:12;6.90;;;3.00;;
2111;SDS011;1062;52.538;13.400;2023-03-05T00:21:39;7.70;;;3.10;;
2111;SDS011;1062;52.538;13.400;2023-03-05T00:24:07;6.23;;;2.93;;
2111;SDS011;1062;52.538;13.400;2023-03-05T00:26:36;3.37;;;3.07;;
2111;SDS011;1062;52.538;13.400;2023-03-05T00:29:03;9.27;;;3.70;;
2111;SDS011;1062;52.538;13.400;2023-03-05T00:31:30;14.87;;;3.63;;
2111;SDS011;1062;52.538;13.400;2023-03-05T00:33:58;9.47;;;3.13;;
2111;SDS011;1062;52.538;13.400;2023-03-05T00:36:26;9.57;;;3.10;;
2111;SDS011;1062;52.538;13.400;2023-03-05T00:38:53;6.90;;;3.53;;
2111;SDS011;1062;52.538;13.400;2023-03-05T00:41:19;6.63;;;3.17;;
2111;SDS011;1062;52.538;13.400;2023-03-05T00:43:44;14.20;;;4.00;;
2111;SDS011;1062;52.538;13.400;2023-03-05T00:46:10;10.33;;;3.83;;
2111;SDS011;1062;52.538;13.400;2023-03-05T00:48:36;12.90;;;3.57;;
2111;SDS011;1062;52.538;13.400;2023-03-05T00:51:01;9.63;;;3.03;;
2111;SDS011;1062;52.538;13.400;2023-03-05T00:53:27;9.13;;;3.30;;
2111;SDS011;1062;52.538;13.400;2023-03-05T00:55:53;6.50;;;3.37;;
2111;SDS011;1062;52.538;13.400;2023-03-05T00:58:19;6.73;;;3.97;;
2111;SDS011;1062;52.538;13.400;2023-03-05T01:00:44;13.23;;;4.70;;
2111;SDS011;1062;52.538;13.400;2023-03-05T01:03:10;9.00;;;2.97;;
2111;SDS011;1062;52.538;13.400;2023-03-05T01:05:36;9.77;;;3.13;;
2111;SDS011;1062;52.538;13.400;2023-03-05T01:08:01;6.60;;;2.90;;
2111;SDS011;1062;52.538;13.400;2023-03-05T01:10:27;13.33;;;2.07;;
2111;SDS011;1062;52.538;13.400;2023-03-05T01:12:54;5.63;;;2.37;;
2111;SDS011;1062;52.538;13.400;2023-03-05T01:15:20;4.73;;;2.50;;
2111;SDS011;1062;52.538;13.400;2023-03-05T01:17:46;3.50;;;2.50;;
2111;SDS011;1062;52.538;13.400;2023-03-05T01:20:12;4.07;;;2.10;;
2111;SDS011;1062;52.538;13.400;2023-03-05T01:22:40;5.40;;;2.50;;
2111;SDS011;1062;52.538;13.400;2023-03-05T01:25:05;8.27;;;2.53;;
2111;SDS011;1062;52.538;13.400;2023-03-05T01:27:32;7.30;;;1.60;;
2111;SDS011;1062;52.538;13.400;2023-03-05T01:29:58;9.17;;;1.57;;
2111;SDS011;1062;52.538;13.400;2023-03-05T01:32:24;8.03;;;2.10;;
2111;SDS011;1062;52.538;13.400;2023-03-05T01:34:49;5.63;;;2.03;;
2111;SDS011;1062;52.538;13.400;2023-03-05T01:37:15;10.43;;;3.10;;
2111;SDS011;1062;52.538;13.400;2023-03-05T01:39:40;3.17;;;2.00;;
2111;SDS011;1062;52.538;13.400;2023-03-05T01:42:06;6.30;;;1.73;;
2111;SDS011;1062;52.538;13.400;2023-03-05T01:44:32;8.83;;;2.93;;
2111;SDS011;1062;52.538;13.400;2023-03-05T01:46:58;1.60;;;1.47;;
2111;SDS011;1062;52.538;13.400;2023-03-05T01:54:52;2.60;;;1.73;;
2111;SDS011;1062;52.538;13.400;2023-03-05T01:57:35;4.47;;;1.80;;
2111;SDS011;1062;52.538;13.400;2023-03-05T02:00:10;5.17;;;2.10;;
2111;SDS011;1062;52.538;13.400;2023-03-05T02:02:38;5.47;;;1.70;;
2111;SDS011;1062;52.538;13.400;2023-03-05T02:05:09;7.10;;;1.70;;
2111;SDS011;1062;52.538;13.400;2023-03-05T02:07:37;4.10;;;1.60;;
2111;SDS011;1062;52.538;13.400;2023-03-05T02:10:14;2.50;;;1.77;;
2111;SDS011;1062;52.538;13.400;2023-03-05T02:12:40;9.30;;;1.63;;
2111;SDS011;1062;52.538;13.400;2023-03-05T02:15:06;3.70;;;1.47;;
2111;SDS011;1062;52.538;13.400;2023-03-05T02:17:32;2.30;;;1.37;;
2111;SDS011;1062;52.538;13.400;2023-03-05T02:20:02;3.50;;;1.13;;
2111;SDS011;1062;52.538;13.400;2023-03-05T02:22:31;4.10;;;1.30;;
2111;SDS011;1062;52.538;13.400;2023-03-05T02:24:57;3.47;;;1.90;;
2111;SDS011;1062;52.538;13.400;2023-03-05T02:27:24;1.60;;;1.50;;
2111;SDS011;1062;52.538;13.400;2023-03-05T02:29:59;2.70;;;1.40;;
2111;SDS011;1062;52.538;13.400;2023-03-05T02:32:25;3.13;;;1.50;;
2111;SDS011;1062;52.538;13.400;2023-03-05T02:34:51;5.17;;;1.53;;
2111;SDS011;1062;52.538;13.400;2023-03-05T02:37:17;9.50;;;2.10;;
2111;SDS011;1062;52.538;13.400;2023-03-05T02:39:42;1.80;;;1.60;;
2111;SDS011;1062;52.538;13.400;2023-03-05T02:42:08;1.33;;;1.23;;
2111;SDS011;1062;52.538;13.400;2023-03-05T02:44:33;1.33;;;1.20;;
2111;SDS011;1062;52.538;13.400;2023-03-05T02:46:59;2.10;;;1.70;;
2111;SDS011;1062;52.538;13.400;2023-03-05T02:49:25;7.23;;;1.97;;
2111;SDS011;1062;52.538;13.400;2023-03-05T02:51:51;3.27;;;1.40;;
2111;SDS011;1062;52.538;13.400;2023-03-05T02:54:16;1.50;;;1.40;;
2111;SDS011;1062;52.538;13.400;2023-03-05T02:56:42;1.93;;;1.63;;
2111;SDS011;1062;52.538;13.400;2023-03-05T02:59:08;3.27;;;1.60;;
2111;SDS011;1062;52.538;13.400;2023-03-05T03:01:33;2.57;;;1.30;;
2111;SDS011;1062;52.538;13.400;2023-03-05T03:03:59;4.50;;;1.63;;
2111;SDS011;1062;52.538;13.400;2023-03-05T03:06:25;3.20;;;1.70;;
2111;SDS011;1062;52.538;13.400;2023-03-05T03:08:50;7.50;;;1.40;;
2111;SDS011;1062;52.538;13.400;2023-03-05T03:11:16;2.80;;;1.57;;
2111;SDS011;1062;52.538;13.400;2023-03-05T03:13:42;3.57;;;1.43;;
2111;SDS011;1062;52.538;13.400;2023-03-05T03:16:09;4.10;;;1.83;;
2111;SDS011;1062;52.538;13.400;2023-03-05T03:18:36;6.03;;;2.23;;
2111;SDS011;1062;52.538;13.400;2023-03-05T03:21:02;1.50;;;1.30;;
2111;SDS011;1062;52.538;13.400;2023-03-05T03:23:29;6.63;;;1.40;;
2111;SDS011;1062;52.538;13.400;2023-03-05T03:25:55;1.43;;;1.27;;
2111;SDS011;1062;52.538;13.400;2023-03-05T03:28:21;2.30;;;1.53;;
2111;SDS011;1062;52.538;13.400;2023-03-05T03:30:46;4.93;;;2.10;;
2111;SDS011;1062;52.538;13.400;2023-03-05T03:33:12;6.67;;;1.43;;
2111;SDS011;1062;52.538;13.400;2023-03-05T03:35:38;1.47;;;1.23;;
2111;SDS011;1062;52.538;13.400;2023-03-05T03:38:03;14.53;;;3.47;;
2111;SDS011;1062;52.538;13.400;2023-03-05T03:40:29;1.83;;;1.60;;
2111;SDS011;1062;52.538;13.400;2023-03-05T03:42:55;2.70;;;1.33;;
2111;SDS011;1062;52.538;13.400;2023-03-05T03:45:20;1.60;;;1.50;;
2111;SDS011;1062;52.538;13.400;2023-03-05T03:47:49;3.60;;;1.93;;
2111;SDS011;1062;52.538;13.400;2023-03-05T03:50:16;2.83;;;1.33;;
2111;SDS011;1062;52.538;13.400;2023-03-05T03:52:42;5.53;;;2.07;;
2111;SDS011;1062;52.538;13.400;2023-03-05T03:55:08;6.60;;;1.50;;
2111;SDS011;1062;52.538;13.400;2023-03-05T03:57:34;2.30;;;1.97;;
2111;SDS011;1062;52.538;13.400;2023-03-05T04:00:01;1.13;;;1.00;;
2111;SDS011;1062;52.538;13.400;2023-03-05T04:02:30;2.80;;;1.60;;
2111;SDS011;1062;52.538;13.400;2023-03-05T04:04:56;1.73;;;1.60;;
2111;SDS011;1062;52.538;13.400;2023-03-05T04:07:22;2.10;;;1.20;;
2111;SDS011;1062;52.538;13.400;2023-03-05T04:09:48;5.60;;;1.60;;
2111;SDS011;1062;52.538;13.400;2023-03-05T04:12:14;1.50;;;1.40;;
2111;SDS011;1062;52.538;13.400;2023-03-05T04:14:42;2.30;;;1.30;;
2111;SDS011;1062;52.538;13.400;2023-03-05T04:17:09;1.77;;;1.50;;
2111;SDS011;1062;52.538;13.400;2023-03-05T04:19:35;2.07;;;1.40;;
2111;SDS011;1062;52.538;13.400;2023-03-05T04:22:01;2.10;;;1.93;;
2111;SDS011;1062;52.538;13.400;2023-03-05T04:24:26;6.47;;;1.70;;
2111;SDS011;1062;52.538;13.400;2023-03-05T04:26:52;1.83;;;1.60;;
2111;SDS011;1062;52.538;13.400;2023-03-05T04:29:18;3.10;;;1.50;;
2111;SDS011;1062;52.538;13.400;2023-03-05T04:31:43;3.37;;;1.70;;
2111;SDS011;1062;52.538;13.400;2023-03-05T04:34:09;5.33;;;1.30;;
2111;SDS011;1062;52.538;13.400;2023-03-05T04:36:35;2.63;;;1.90;;
2111;SDS011;1062;52.538;13.400;2023-03-05T04:39:01;2.90;;;1.60;;
2111;SDS011;1062;52.538;13.400;2023-03-05T04:41:26;2.33;;;1.50;;
2111;SDS011;1062;52.538;13.400;2023-03-05T04:43:52;5.87;;;1.90;;
2111;SDS011;1062;52.538;13.400;2023-03-05T04:46:17;4.00;;;1.53;;
2111;SDS011;1062;52.538;13.400;2023-03-05T04:48:43;1.77;;;1.50;;
2111;SDS011;1062;52.538;13.400;2023-03-05T04:51:08;3.63;;;1.33;;
2111;SDS011;1062;52.538;13.400;2023-03-05T04:53:34;1.30;;;1.20;;
2111;SDS011;1062;52.538;13.400;2023-03-05T04:56:00;5.20;;;2.20;;
2111;SDS011;1062;52.538;13.400;2023-03-05T04:58:25;2.40;;;1.93;;
2111;SDS011;1062;52.538;13.400;2023-03-05T05:00:51;3.00;;;1.60;;
2111;SDS011;1062;52.538;13.400;2023-03-05T05:03:17;2.90;;;1.57;;
2111;SDS011;1062;52.538;13.400;2023-03-05T05:05:42;2.13;;;1.30;;
2111;SDS011;1062;52.538;13.400;2023-03-05T05:08:08;2.03;;;1.30;;
2111;SDS011;1062;52.538;13.400;2023-03-05T05:10:35;4.10;;;1.80;;
2111;SDS011;1062;52.538;13.400;2023-03-05T05:13:03;8.60;;;2.00;;
2111;SDS011;1062;52.538;13.400;2023-03-05T05:15:29;7.33;;;2.30;;
2111;SDS011;1062;52.538;13.400;2023-03-05T05:17:56;2.20;;;1.90;;
2111;SDS011;1062;52.538;13.400;2023-03-05T05:20:21;3.90;;;1.20;;
2111;SDS011;1062;52.538;13.400;2023-03-05T05:22:47;3.00;;;1.30;;
2111;SDS011;1062;52.538;13.400;2023-03-05T05:25:13;1.93;;;1.60;;
2111;SDS011;1062;52.538;13.400;2023-03-05T05:27:38;1.20;;;1.10;;
2111;SDS011;1062;52.538;13.400;2023-03-05T05:30:05;3.93;;;1.33;;
2111;SDS011;1062;52.538;13.400;2023-03-05T05:32:31;2.10;;;1.40;;
2111;SDS011;1062;52.538;13.400;2023-03-05T05:34:57;3.00;;;1.70;;
2111;SDS011;1062;52.538;13.400;2023-03-05T05:37:24;2.73;;;1.33;;
2111;SDS011;1062;52.538;13.400;2023-03-05T05:39:50;5.80;;;1.33;;
2111;SDS011;1062;52.538;13.400;2023-03-05T05:42:17;2.87;;;1.83;;
2111;SDS011;1062;52.538;13.400;2023-03-05T05:44:44;1.87;;;1.63;;
2111;SDS011;1062;52.538;13.400;2023-03-05T05:47:11;4.93;;;3.97;;
2111;SDS011;1062;52.538;13.400;2023-03-05T05:49:37;1.67;;;1.57;;
2111;SDS011;1062;52.538;13.400;2023-03-05T05:52:03;1.53;;;1.20;;
2111;SDS011;1062;52.538;13.400;2023-03-05T05:54:29;2.00;;;1.43;;
2111;SDS011;1062;52.538;13.400;2023-03-05T05:56:55;1.73;;;1.63;;
2111;SDS011;1062;52.538;13.400;2023-03-05T05:59:20;3.53;;;1.63;;
2111;SDS011;1062;52.538;13.400;2023-03-05T06:01:46;3.80;;;1.50;;
2111;SDS011;1062;52.538;13.400;2023-03-05T06:04:11;2.93;;;2.73;;
2111;SDS011;1062;52.538;13.400;2023-03-05T06:06:37;5.77;;;2.00;;
2111;SDS011;1062;52.538;13.400;2023-03-05T06:09:03;3.93;;;1.73;;
2111;SDS011;1062;52.538;13.400;2023-03-05T06:11:28;2.90;;;1.33;;
2111;SDS011;1062;52.538;13.400;2023-03-05T06:13:54;1.50;;;1.30;;
2111;SDS011;1062;52.538;13.400;2023-03-05T06:16:21;4.03;;;2.03;;
2111;SDS011;1062;52.538;13.400;2023-03-05T06:18:49;13.77;;;2.80;;
2111;SDS011;1062;52.538;13.400;2023-03-05T06:21:16;4.20;;;1.60;;
2111;SDS011;1062;52.538;13.400;2023-03-05T06:23:43;4.30;;;1.70;;
2111;SDS011;1062;52.538;13.400;2023-03-05T06:26:10;2.30;;;1.97;;
2111;SDS011;1062;52.538;13.400;2023-03-05T06:28:38;3.10;;;1.80;;
2111;SDS011;1062;52.538;13.400;2023-03-05T06:31:11;8.50;;;2.50;;
2111;SDS011;1062;52.538;13.400;2023-03-05T06:33:39;5.57;;;1.83;;
2111;SDS011;1062;52.538;13.400;2023-03-05T06:36:05;3.40;;;1.50;;
2111;SDS011;1062;52.538;13.400;2023-03-05T06:38:32;6.80;;;2.17;;
2111;SDS011;1062;52.538;13.400;2023-03-05T06:40:59;3.37;;;2.00;;
2111;SDS011;1062;52.538;13.400;2023-03-05T06:43:33;2.10;;;1.67;;
2111;SDS011;1062;52.538;13.400;2023-03-05T06:46:05;4.37;;;2.03;;
2111;SDS011;1062;52.538;13.400;2023-03-05T06:48:42;6.80;;;2.27;;
2111;SDS011;1062;52.538;13.400;2023-03-05T06:51:26;3.70;;;2.03;;
2111;SDS011;1062;52.538;13.400;2023-03-05T06:53:54;7.50;;;2.27;;
2111;SDS011;1062;52.538;13.400;2023-03-05T06:56:22;1.90;;;1.37;;
2111;SDS011;1062;52.538;13.400;2023-03-05T06:58:49;3.70;;;1.30;;
2111;SDS011;1062;52.538;13.400;2023-03-05T07:01:16;2.47;;;2.33;;
2111;SDS011;1062;52.538;13.400;2023-03-05T07:03:42;1.37;;;1.27;;
2111;SDS011;1062;52.538;13.400;2023-03-05T07:08:43;2.20;;;1.20;;
2111;SDS011;1062;52.538;13.400;2023-03-05T07:11:12;3.10;;;2.30;;
2111;SDS011;1062;52.538;13.400;2023-03-05T07:13:40;3.67;;;1.17;;
2111;SDS011;1062;52.538;13.400;2023-03-05T07:16:10;3.80;;;1.57;;
2111;SDS011;1062;52.538;13.400;2023-03-05T07:18:39;2.60;;;1.27;;
2111;SDS011;1062;52.538;13.400;2023-03-05T07:21:05;2.67;;;0.90;;
2111;SDS011;1062;52.538;13.400;2023-03-05T07:23:32;1.20;;;1.10;;
2111;SDS011;1062;52.538;13.400;2023-03-05T07:26:02;4.77;;;2.90;;
2111;SDS011;1062;52.538;13.400;2023-03-05T07:28:30;2.80;;;1.10;;
2111;SDS011;1062;52.538;13.400;2023-03-05T07:30:57;4.20;;;1.93;;
2111;SDS011;1062;52.538;13.400;2023-03-05T07:33:24;2.80;;;1.43;;
2111;SDS011;1062;52.538;13.400;2023-03-05T07:35:51;2.23;;;1.40;;
2111;SDS011;1062;52.538;13.400;2023-03-05T07:38:16;3.40;;;1.47;;
2111;SDS011;1062;52.538;13.400;2023-03-05T07:40:42;2.00;;;1.50;;
2111;SDS011;1062;52.538;13.400;2023-03-05T07:43:08;2.60;;;1.53;;
2111;SDS011;1062;52.538;13.400;2023-03-05T07:45:33;1.60;;;1.30;;
2111;SDS011;1062;52.538;13.400;2023-03-05T07:47:59;3.30;;;1.47;;
2111;SDS011;1062;52.538;13.400;2023-03-05T07:50:24;2.20;;;1.23;;
2111;SDS011;1062;52.538;13.400;2023-03-05T07:52:50;1.57;;;1.13;;
2111;SDS011;1062;52.538;13.400;2023-03-05T07:55:15;1.27;;;1.17;;
2111;SDS011;1062;52.538;13.400;2023-03-05T07:57:41;6.00;;;1.40;;
2111;SDS011;1062;52.538;13.400;2023-03-05T08:00:07;3.00;;;1.87;;
2111;SDS011;1062;52.538;13.400;2023-03-05T08:02:33;2.47;;;1.70;;
2111;SDS011;1062;52.538;13.400;2023-03-05T08:04:59;3.20;;;1.10;;
2111;SDS011;1062;52.538;13.400;2023-03-05T08:07:24;3.67;;;1.20;;
2111;SDS011;1062;52.538;13.400;2023-03-05T08:09:50;4.77;;;1.60;;
2111;SDS011;1062;52.538;13.400;2023-03-05T08:12:15;1.63;;;1.40;;
2111;SDS011;1062;52.538;13.400;2023-03-05T08:14:41;7.47;;;1.63;;
2111;SDS011;1062;52.538;13.400;2023-03-05T08:17:06;4.20;;;1.40;;
2111;SDS011;1062;52.538;13.400;2023-03-05T08:19:32;1.80;;;1.10;;
2111;SDS011;1062;52.538;13.400;2023-03-05T08:21:58;2.50;;;1.93;;
2111;SDS011;1062;52.538;13.400;2023-03-05T08:24:24;2.97;;;1.27;;
2111;SDS011;1062;52.538;13.400;2023-03-05T08:26:53;1.50;;;1.40;;
2111;SDS011;1062;52.538;13.400;2023-03-05T08:29:20;1.10;;;0.93;;
2111;SDS011;1062;52.538;13.400;2023-03-05T08:31:46;2.20;;;1.27;;
2111;SDS011;1062;52.538;13.400;2023-03-05T08:34:13;4.40;;;1.77;;
2111;SDS011;1062;52.538;13.400;2023-03-05T08:36:39;7.00;;;2.03;;
2111;SDS011;1062;52.538;13.400;2023-03-05T08:39:05;4.60;;;1.30;;
2111;SDS011;1062;52.538;13.400;2023-03-05T08:41:32;4.97;;;1.47;;
2111;SDS011;1062;52.538;13.400;2023-03-05T08:43:58;2.90;;;1.60;;
2111;SDS011;1062;52.538;13.400;2023-03-05T08:46:24;2.83;;;1.27;;
2111;SDS011;1062;52.538;13.400;2023-03-05T08:48:49;2.03;;;1.10;;
2111;SDS011;1062;52.538;13.400;2023-03-05T08:51:16;5.10;;;1.70;;
2111;SDS011;1062;52.538;13.400;2023-03-05T08:53:46;3.60;;;1.17;;
2111;SDS011;1062;52.538;13.400;2023-03-05T08:56:12;4.30;;;1.73;;
2111;SDS011;1062;52.538;13.400;2023-03-05T08:58:38;2.63;;;1.20;;
2111;SDS011;1062;52.538;13.400;2023-03-05T09:01:04;5.70;;;1.10;;
2111;SDS011;1062;52.538;13.400;2023-03-05T09:03:30;6.13;;;2.10;;
2111;SDS011;1062;52.538;13.400;2023-03-05T09:05:59;5.30;;;1.30;;
2111;SDS011;1062;52.538;13.400;2023-03-05T09:08:26;1.73;;;0.97;;
2111;SDS011;1062;52.538;13.400;2023-03-05T09:10:53;4.23;;;0.97;;
2111;SDS011;1062;52.538;13.400;2023-03-05T09:13:18;2.27;;;1.10;;
2111;SDS011;1062;52.538;13.400;2023-03-05T09:15:44;5.13;;;1.50;;
2111;SDS011;1062;52.538;13.400;2023-03-05T09:18:10;5.43;;;1.50;;
2111;SDS011;1062;52.538;13.400;2023-03-05T09:20:35;2.10;;;1.50;;
2111;SDS011;1062;52.538;13.400;2023-03-05T09:23:02;6.40;;;1.33;;
2111;SDS011;1062;52.538;13.400;2023-03-05T09:25:28;4.70;;;1.77;;
2111;SDS011;1062;52.538;13.400;2023-03-05T09:27:54;6.40;;;1.40;;
2111;SDS011;1062;52.538;13.400;2023-03-05T09:30:20;3.07;;;2.40;;
2111;SDS011;1062;52.538;13.400;2023-03-05T09:32:45;2.70;;;1.37;;
2111;SDS011;1062;52.538;13.400;2023-03-05T09:35:11;1.47;;;1.10;;
2111;SDS011;1062;52.538;13.400;2023-03-05T09:37:36;8.63;;;1.23;;
2111;SDS011;1062;52.538;13.400;2023-03-05T09:40:02;1.73;;;1.43;;
2111;SDS011;1062;52.538;13.400;2023-03-05T09:42:44;3.13;;;1.30;;
2111;SDS011;1062;52.538;13.400;2023-03-05T09:45:27;4.30;;;1.53;;
2111;SDS011;1062;52.538;13.400;2023-03-05T09:48:20;2.60;;;1.93;;
2111;SDS011;1062;52.538;13.400;2023-03-05T09:50:53;8.70;;;1.47;;
2111;SDS011;1062;52.538;13.400;2023-03-05T09:53:44;2.10;;;1.60;;
2111;SDS011;1062;52.538;13.400;2023-03-05T09:56:14;3.57;;;1.20;;
2111;SDS011;1062;52.538;13.400;2023-03-05T09:58:54;1.53;;;1.40;;
2111;SDS011;1062;52.538;13.400;2023-03-05T10:01:44;2.77;;;1.40;;
2111;SDS011;1062;52.538;13.400;2023-03-05T10:04:11;4.40;;;1.57;;
2111;SDS011;1062;52.538;13.400;2023-03-05T10:06:49;3.60;;;1.50;;
2111;SDS011;1062;52.538;13.400;2023-03-05T10:12:55;4.27;;;1.30;;
2111;SDS011;1062;52.538;13.400;2023-03-05T10:15:50;3.43;;;1.73;;
2111;SDS011;1062;52.538;13.400;2023-03-05T10:26:26;1.70;;;1.40;;
2111;SDS011;1062;52.538;13.400;2023-03-05T10:34:37;1.87;;;1.10;;
2111;SDS011;1062;52.538;13.400;2023-03-05T10:37:27;2.53;;;1.30;;
2111;SDS011;1062;52.538;13.400;2023-03-05T10:45:35;2.50;;;1.27;;
2111;SDS011;1062;52.538;13.400;2023-03-05T10:48:13;1.43;;;1.33;;
2111;SDS011;1062;52.538;13.400;2023-03-05T10:50:55;2.67;;;1.50;;
2111;SDS011;1062;52.538;13.400;2023-03-05T10:53:31;3.50;;;1.70;;
2111;SDS011;1062;52.538;13.400;2023-03-05T10:56:18;1.57;;;1.30;;
2111;SDS011;1062;52.538;13.400;2023-03-05T10:58:45;2.70;;;1.73;;
2111;SDS011;1062;52.538;13.400;2023-03-05T11:06:49;2.17;;;1.60;;
2111;SDS011;1062;52.538;13.400;2023-03-05T11:09:22;2.77;;;1.43;;
2111;SDS011;1062;52.538;13.400;2023-03-05T11:14:32;1.70;;;1.60;;
2111;SDS011;1062;52.538;13.400;2023-03-05T11:17:00;3.70;;;1.50;;
2111;SDS011;1062;52.538;13.400;2023-03-05T11:19:31;1.13;;;1.00;;
2111;SDS011;1062;52.538;13.400;2023-03-05T11:24:38;1.57;;;1.40;;
2111;SDS011;1062;52.538;13.400;2023-03-05T11:30:21;3.17;;;2.03;;
2111;SDS011;1062;52.538;13.400;2023-03-05T11:35:44;2.43;;;1.70;;
2111;SDS011;1062;52.538;13.400;2023-03-05T11:38:45;2.10;;;1.40;;
2111;SDS011;1062;52.538;13.400;2023-03-05T11:41:08;3.37;;;2.07;;
2111;SDS011;1062;52.538;13.400;2023-03-05T11:43:35;2.10;;;1.30;;
2111;SDS011;1062;52.538;13.400;2023-03-05T11:46:02;3.40;;;1.63;;
2111;SDS011;1062;52.538;13.400;2023-03-05T11:48:29;4.03;;;1.80;;
2111;SDS011;1062;52.538;13.400;2023-03-05T11:51:00;2.40;;;1.50;;
2111;SDS011;1062;52.538;13.400;2023-03-05T11:53:31;1.30;;;1.20;;
2111;SDS011;1062;52.538;13.400;2023-03-05T11:56:14;7.27;;;1.93;;
2111;SDS011;1062;52.538;13.400;2023-03-05T11:58:53;2.90;;;1.37;;
2111;SDS011;1062;52.538;13.400;2023-03-05T12:01:27;2.90;;;1.53;;
2111;SDS011;1062;52.538;13.400;2023-03-05T12:03:55;3.30;;;1.77;;
2111;SDS011;1062;52.538;13.400;2023-03-05T12:08:54;3.03;;;1.57;;
2111;SDS011;1062;52.538;13.400;2023-03-05T12:11:27;2.20;;;2.00;;
2111;SDS011;1062;52.538;13.400;2023-03-05T12:14:06;2.80;;;1.67;;
2111;SDS011;1062;52.538;13.400;2023-03-05T12:16:41;3.37;;;1.47;;
2111;SDS011;1062;52.538;13.400;2023-03-05T12:19:39;2.40;;;1.70;;
2111;SDS011;1062;52.538;13.400;2023-03-05T12:22:15;1.77;;;1.40;;
2111;SDS011;1062;52.538;13.400;2023-03-05T12:24:44;8.00;;;1.97;;
2111;SDS011;1062;52.538;13.400;2023-03-05T12:27:10;1.77;;;1.63;;
2111;SDS011;1062;52.538;13.400;2023-03-05T12:29:40;2.53;;;1.47;;
2111;SDS011;1062;52.538;13.400;2023-03-05T12:34:47;2.10;;;1.50;;
2111;SDS011;1062;52.538;13.400;2023-03-05T12:55:23;1.40;;;1.30;;
2111;SDS011;1062;52.538;13.400;2023-03-05T12:58:02;2.07;;;1.40;;
2111;SDS011;1062;52.538;13.400;2023-03-05T13:00:47;4.33;;;1.30;;
2111;SDS011;1062;52.538;13.400;2023-03-05T13:03:21;3.47;;;1.73;;
2111;SDS011;1062;52.538;13.400;2023-03-05T13:05:55;3.97;;;1.80;;
2111;SDS011;1062;52.538;13.400;2023-03-05T13:10:53;2.10;;;1.83;;
2111;SDS011;1062;52.538;13.400;2023-03-05T13:13:37;2.80;;;1.83;;
2111;SDS011;1062;52.538;13.400;2023-03-05T13:16:23;5.30;;;2.13;;
2111;SDS011;1062;52.538;13.400;2023-03-05T13:18:51;1.50;;;1.40;;
2111;SDS011;1062;52.538;13.400;2023-03-05T13:21:20;2.10;;;1.80;;
2111;SDS011;1062;52.538;13.400;2023-03-05T13:23:51;2.03;;;1.37;;
2111;SDS011;1062;52.538;13.400;2023-03-05T13:31:39;2.17;;;1.20;;
2111;SDS011;1062;52.538;13.400;2023-03-05T13:34:13;4.73;;;1.97;;
2111;SDS011;1062;52.538;13.400;2023-03-05T13:39:43;4.10;;;1.47;;
2111;SDS011;1062;52.538;13.400;2023-03-05T13:42:26;1.60;;;1.20;;
2111;SDS011;1062;52.538;13.400;2023-03-05T13:44:54;1.67;;;1.33;;
2111;SDS011;1062;52.538;13.400;2023-03-05T13:47:22;5.07;;;1.50;;
2111;SDS011;1062;52.538;13.400;2023-03-05T13:49:56;1.90;;;1.57;;
2111;SDS011;1062;52.538;13.400;2023-03-05T13:52:33;5.73;;;1.23;;
2111;SDS011;1062;52.538;13.400;2023-03-05T13:55:01;1.70;;;1.33;;
2111;SDS011;1062;52.538;13.400;2023-03-05T14:02:55;5.60;;;1.43;;
2111;SDS011;1062;52.538;13.400;2023-03-05T14:05:24;1.60;;;1.50;;
2111;SDS011;1062;52.538;13.400;2023-03-05T14:07:50;1.77;;;1.37;;
2111;SDS011;1062;52.538;13.400;2023-03-05T14:12:57;3.20;;;1.50;;
2111;SDS011;1062;52.538;13.400;2023-03-05T14:15:27;1.50;;;1.10;;
2111;SDS011;1062;52.538;13.400;2023-03-05T14:18:07;2.10;;;1.10;;
2111;SDS011;1062;52.538;13.400;2023-03-05T14:20:36;1.47;;;1.03;;
2111;SDS011;1062;52.538;13.400;2023-03-05T14:23:24;2.00;;;0.90;;
2111;SDS011;1062;52.538;13.400;2023-03-05T14:28:52;3.47;;;1.20;;
2111;SDS011;1062;52.538;13.400;2023-03-05T14:31:20;2.20;;;1.37;;
2111;SDS011;1062;52.538;13.400;2023-03-05T14:33:47;2.80;;;2.30;;
2111;SDS011;1062;52.538;13.400;2023-03-05T14:36:18;2.67;;;1.63;;
2111;SDS011;1062;52.538;13.400;2023-03-05T14:38:46;5.70;;;1.50;;
2111;SDS011;1062;52.538;13.400;2023-03-05T14:43:43;4.10;;;1.67;;
2111;SDS011;1062;52.538;13.400;2023-03-05T14:46:09;1.20;;;1.10;;
2111;SDS011;1062;52.538;13.400;2023-03-05T14:48:35;2.13;;;1.70;;
2111;SDS011;1062;52.538;13.400;2023-03-05T14:51:01;2.80;;;1.20;;
2111;SDS011;1062;52.538;13.400;2023-03-05T14:53:27;1.67;;;1.00;;
2111;SDS011;1062;52.538;13.400;2023-03-05T14:56:14;2.47;;;1.23;;
2111;SDS011;1062;52.538;13.400;2023-03-05T14:58:40;3.67;;;1.37;;
2111;SDS011;1062;52.538;13.400;2023-03-05T15:01:06;3.43;;;1.27;;
2111;SDS011;1062;52.538;13.400;2023-03-05T15:03:33;2.10;;;1.30;;
2111;SDS011;1062;52.538;13.400;2023-03-05T15:05:58;1.40;;;1.20;;
2111;SDS011;1062;52.538;13.400;2023-03-05T15:08:26;4.87;;;1.30;;
2111;SDS011;1062;52.538;13.400;2023-03-05T15:10:53;1.50;;;1.40;;
2111;SDS011;1062;52.538;13.400;2023-03-05T15:13:19;2.00;;;1.17;;
2111;SDS011;1062;52.538;13.400;2023-03-05T15:15:46;1.60;;;1.40;;
2111;SDS011;1062;52.538;13.400;2023-03-05T15:18:13;2.50;;;1.07;;
2111;SDS011;1062;52.538;13.400;2023-03-05T15:20:40;2.30;;;1.00;;
2111;SDS011;1062;52.538;13.400;2023-03-05T15:23:07;4.50;;;1.37;;
2111;SDS011;1062;52.538;13.400;2023-03-05T15:25:33;4.07;;;1.20;;
2111;SDS011;1062;52.538;13.400;2023-03-05T15:27:58;1.67;;;1.40;;
2111;SDS011;1062;52.538;13.400;2023-03-05T15:30:26;1.93;;;1.40;;
2111;SDS011;1062;52.538;13.400;2023-03-05T15:32:57;2.37;;;1.40;;
2111;SDS011;1062;52.538;13.400;2023-03-05T15:35:25;2.20;;;1.10;;
2111;SDS011;1062;52.538;13.400;2023-03-05T15:37:51;3.07;;;1.30;;
2111;SDS011;1062;52.538;13.400;2023-03-05T15:40:18;2.07;;;1.50;;
2111;SDS011;1062;52.538;13.400;2023-03-05T15:42:45;2.50;;;1.17;;
2111;SDS011;1062;52.538;13.400;2023-03-05T15:45:11;1.10;;;1.00;;
2111;SDS011;1062;52.538;13.400;2023-03-05T15:47:37;2.10;;;0.87;;
2111;SDS011;1062;52.538;13.400;2023-03-05T15:50:03;1.73;;;1.10;;
2111;SDS011;1062;52.538;13.400;2023-03-05T15:52:29;1.57;;;1.30;;
2111;SDS011;1062;52.538;13.400;2023-03-05T15:54:54;1.13;;;1.00;;
2111;SDS011;1062;52.538;13.400;2023-03-05T15:57:20;1.90;;;1.20;;
2111;SDS011;1062;52.538;13.400;2023-03-05T15:59:49;1.83;;;1.17;;
2111;SDS011;1062;52.538;13.400;2023-03-05T16:02:14;1.70;;;1.30;;
2111;SDS011;1062;52.538;13.400;2023-03-05T16:04:40;4.87;;;1.47;;
2111;SDS011;1062;52.538;13.400;2023-03-05T16:07:05;3.60;;;1.50;;
2111;SDS011;1062;52.538;13.400;2023-03-05T16:09:40;2.43;;;1.67;;
2111;SDS011;1062;52.538;13.400;2023-03-05T16:12:11;1.43;;;1.33;;
2111;SDS011;1062;52.538;13.400;2023-03-05T16:14:40;2.10;;;1.20;;
2111;SDS011;1062;52.538;13.400;2023-03-05T16:17:06;1.90;;;1.53;;
2111;SDS011;1062;52.538;13.400;2023-03-05T16:19:33;2.20;;;1.40;;
2111;SDS011;1062;52.538;13.400;2023-03-05T16:22:00;4.67;;;1.83;;
2111;SDS011;1062;52.538;13.400;2023-03-05T16:24:26;3.10;;;1.10;;
2111;SDS011;1062;52.538;13.400;2023-03-05T16:26:52;3.00;;;2.03;;
2111;SDS011;1062;52.538;13.400;2023-03-05T16:29:18;3.10;;;1.23;;
2111;SDS011;1062;52.538;13.400;2023-03-05T16:31:43;1.93;;;1.37;;
2111;SDS011;1062;52.538;13.400;2023-03-05T16:34:10;3.03;;;1.43;;
2111;SDS011;1062;52.538;13.400;2023-03-05T16:36:38;4.03;;;1.47;;
2111;SDS011;1062;52.538;13.400;2023-03-05T16:39:05;5.63;;;1.87;;
2111;SDS011;1062;52.538;13.400;2023-03-05T16:41:31;1.30;;;1.20;;
2111;SDS011;1062;52.538;13.400;2023-03-05T16:43:56;2.00;;;1.33;;